Time;durP1;ratioP1;P1;durP2;ratioP2;P2;SDS_P1;SDS_P2;PMS_P1;PMS_P2;Temp;Humidity;BMP_temperature;BMP_pressure;BME280_temperature;BME280_humidity;BME280_pressure;Samples;Min_cycle;Max_cycle;Signal;HPM_P1;HPM_P2
2021/05/12 00:01:28;;;;;;;18.90;16.80;;;12.30;99.10;;;;;;5130616;27;20044;-43
2021/05/12 00:03:54;;;;;;;18.17;16.08;;;12.20;99.00;;;;;;5129846;27;20051;-44
2021/05/12 00:06:20;;;;;;;22.98;17.70;;;12.20;99.00;;;;;;5129564;27;20143;-42
2021/05/12 00:08:46;;;;;;;20.73;18.13;;;12.20;99.10;;;;;;5130099;27;20043;-44
2021/05/12 00:11:13;;;;;;;20.15;17.38;;;12.10;99.10;;;;;;5129899;27;20494;-43
2021/05/12 00:13:39;;;;;;;21.98;18.70;;;12.20;99.20;;;;;;5130851;27;20065;-43
2021/05/12 00:16:05;;;;;;;23.92;18.88;;;12.10;99.20;;;;;;5129857;27;20051;-43
2021/05/12 00:18:37;;;;;;;23.27;18.00;;;12.10;99.20;;;;;;5129985;27;20402;-43
2021/05/12 00:21:10;;;;;;;19.90;17.27;;;12.10;99.30;;;;;;5134367;27;20047;-44
2021/05/12 00:23:57;;;;;;;23.38;19.30;;;12.10;99.30;;;;;;5130079;27;20055;-43
2021/05/12 00:26:24;;;;;;;23.52;18.45;;;12.10;99.40;;;;;;5129728;27;20051;-44
2021/05/12 00:28:50;;;;;;;21.73;19.45;;;12.10;99.40;;;;;;5130319;27;20043;-43
2021/05/12 00:31:16;;;;;;;22.15;19.83;;;12.10;99.40;;;;;;5129732;27;20083;-43
2021/05/12 00:33:42;;;;;;;23.88;21.15;;;12.00;99.40;;;;;;5129659;27;20434;-44
2021/05/12 00:36:08;;;;;;;22.98;20.08;;;12.10;99.50;;;;;;5129734;27;20546;-44
2021/05/12 00:38:34;;;;;;;24.27;19.80;;;12.00;99.50;;;;;;5129946;27;20047;-45
2021/05/12 00:41:03;;;;;;;27.50;22.20;;;12.00;99.50;;;;;;5129772;27;20142;-43
2021/05/12 00:43:30;;;;;;;23.83;19.73;;;12.00;99.50;;;;;;5129461;27;20051;-43
2021/05/12 00:45:56;;;;;;;23.95;21.45;;;12.00;99.50;;;;;;5129659;27;20047;-44
2021/05/12 00:48:24;;;;;;;25.75;21.90;;;12.00;99.50;;;;;;5128630;27;20051;-43
2021/05/12 00:50:50;;;;;;;23.67;21.27;;;11.90;99.60;;;;;;5130195;27;20051;-43
2021/05/12 00:53:17;;;;;;;25.23;20.85;;;12.00;99.60;;;;;;5129246;27;20766;-44
2021/05/12 00:55:43;;;;;;;29.27;22.35;;;12.00;99.70;;;;;;5131310;27;20532;-44
2021/05/12 00:58:09;;;;;;;25.80;22.55;;;12.00;99.80;;;;;;5110005;27;20051;-43
2021/05/12 01:00:36;;;;;;;27.67;22.75;;;11.90;99.90;;;;;;5128963;27;20520;-44
2021/05/12 01:03:03;;;;;;;26.20;22.90;;;11.90;99.90;;;;;;5129315;27;20043;-43
2021/05/12 01:05:57;;;;;;;27.80;22.83;;;11.90;99.90;;;;;;5128489;27;20486;-43
2021/05/12 01:08:24;;;;;;;26.20;22.67;;;11.90;99.90;;;;;;5128310;27;20062;-43
2021/05/12 01:10:53;;;;;;;26.55;23.08;;;11.90;99.90;;;;;;5128769;27;20154;-44
2021/05/12 01:13:19;;;;;;;28.50;22.92;;;11.80;99.90;;;;;;5128840;27;20154;-42
2021/05/12 01:15:45;;;;;;;29.23;23.42;;;11.80;99.90;;;;;;5128332;27;20548;-40
2021/05/12 01:18:12;;;;;;;29.42;23.30;;;11.90;99.90;;;;;;5128435;27;20058;-40
2021/05/12 01:20:47;;;;;;;28.42;23.73;;;11.80;99.90;;;;;;5129013;27;20049;-43
2021/05/12 01:23:19;;;;;;;30.70;25.33;;;11.80;99.90;;;;;;5128241;27;20093;-40
2021/05/12 01:25:47;;;;;;;28.23;24.23;;;11.80;99.90;;;;;;5128494;27;20055;-41
2021/05/12 01:28:20;;;;;;;28.80;23.95;;;11.80;99.90;;;;;;5128036;27;20177;-40
2021/05/12 01:31:07;;;;;;;27.63;24.13;;;11.80;99.90;;;;;;5128207;27;20112;-42
2021/05/12 01:33:34;;;;;;;30.05;23.55;;;11.80;99.90;;;;;;5128662;27;20051;-42
2021/05/12 01:36:00;;;;;;;28.35;23.55;;;11.80;99.90;;;;;;5127537;27;20061;-42
2021/05/12 01:38:30;;;;;;;26.77;23.95;;;11.80;99.90;;;;;;5112222;27;20074;-41
2021/05/12 01:40:59;;;;;;;27.58;24.58;;;11.80;99.90;;;;;;5128016;27;20051;-42
2021/05/12 01:43:25;;;;;;;27.52;24.60;;;11.80;99.90;;;;;;5127913;27;20418;-41
2021/05/12 01:45:52;;;;;;;25.77;22.98;;;11.80;99.90;;;;;;5128482;27;20138;-41
2021/05/12 01:48:18;;;;;;;31.73;25.52;;;11.80;99.90;;;;;;5127071;27;20087;-42
2021/05/12 01:50:45;;;;;;;31.00;25.13;;;11.80;99.90;;;;;;5128251;27;20148;-42
2021/05/12 01:53:11;;;;;;;30.05;25.77;;;11.80;99.90;;;;;;5135405;27;20542;-42
2021/05/12 01:55:40;;;;;;;28.33;23.15;;;11.80;99.90;;;;;;5109548;27;20043;-42
2021/05/12 01:58:07;;;;;;;32.05;25.63;;;11.70;99.90;;;;;;5127293;27;20043;-42
2021/05/12 02:00:42;;;;;;;28.20;24.25;;;11.70;99.90;;;;;;5128178;27;20043;-42
2021/05/12 02:03:09;;;;;;;28.63;24.02;;;11.70;99.90;;;;;;5128034;27;20051;-42
2021/05/12 02:05:36;;;;;;;29.35;24.48;;;11.70;99.90;;;;;;5128715;27;20482;-43
2021/05/12 02:08:05;;;;;;;29.13;23.25;;;11.70;99.90;;;;;;5127812;27;20055;-43
2021/05/12 02:10:33;;;;;;;30.40;25.50;;;11.70;99.90;;;;;;5127944;27;20479;-42
2021/05/12 02:13:02;;;;;;;30.42;25.15;;;11.70;99.90;;;;;;5128089;28;20134;-41
2021/05/12 02:15:41;;;;;;;31.33;25.83;;;11.70;99.90;;;;;;5133131;27;20126;-42
2021/05/12 02:18:07;;;;;;;30.38;25.48;;;11.70;99.90;;;;;;5127228;28;20095;-43
2021/05/12 02:20:35;;;;;;;32.17;25.65;;;11.70;99.90;;;;;;5128102;28;20051;-42
2021/05/12 02:23:04;;;;;;;28.45;25.08;;;11.70;99.90;;;;;;5127117;28;20047;-42
2021/05/12 02:25:31;;;;;;;31.05;25.65;;;11.60;99.90;;;;;;5127525;28;20080;-41
2021/05/12 02:27:58;;;;;;;30.42;25.17;;;11.60;99.90;;;;;;5127256;28;20192;-42
2021/05/12 02:30:25;;;;;;;29.70;25.52;;;11.60;99.90;;;;;;5126941;28;20066;-43
2021/05/12 02:32:51;;;;;;;32.40;25.92;;;11.60;99.90;;;;;;5128267;28;20054;-41
2021/05/12 02:35:19;;;;;;;27.75;24.02;;;11.50;99.90;;;;;;5127373;28;20070;-41
2021/05/12 02:37:45;;;;;;;35.20;26.52;;;11.50;99.90;;;;;;5127192;28;20054;-43
2021/05/12 02:40:14;;;;;;;34.35;27.05;;;11.40;99.90;;;;;;5126581;28;20039;-41
2021/05/12 02:42:44;;;;;;;30.35;27.00;;;11.40;99.90;;;;;;5127174;28;20043;-41
2021/05/12 02:45:11;;;;;;;34.85;26.75;;;11.40;99.90;;;;;;5127575;28;20506;-41
2021/05/12 02:47:37;;;;;;;30.65;26.23;;;11.30;99.90;;;;;;5127152;28;20050;-42
2021/05/12 02:50:09;;;;;;;40.25;27.83;;;11.30;99.90;;;;;;5126699;28;20062;-41
2021/05/12 02:52:39;;;;;;;34.90;27.80;;;11.30;99.90;;;;;;5127574;28;20070;-41
2021/05/12 02:55:06;;;;;;;33.75;27.92;;;11.30;99.90;;;;;;5127018;28;20493;-41
2021/05/12 02:57:32;;;;;;;35.15;29.50;;;11.20;99.90;;;;;;5127681;28;20119;-43
2021/05/12 02:59:58;;;;;;;36.03;30.38;;;11.30;99.90;;;;;;5108216;28;20043;-43
2021/05/12 03:02:28;;;;;;;38.83;29.42;;;11.30;99.90;;;;;;5126886;28;20047;-41
2021/05/12 03:04:54;;;;;;;38.13;28.95;;;11.30;99.90;;;;;;5127370;28;20043;-43
2021/05/12 03:07:20;;;;;;;42.00;32.05;;;11.30;99.90;;;;;;5127169;28;20043;-42
2021/05/12 03:09:46;;;;;;;44.20;32.67;;;11.30;99.90;;;;;;5127695;27;20075;-42
2021/05/12 03:12:13;;;;;;;46.13;31.83;;;11.40;99.90;;;;;;5130802;27;20051;-42
2021/05/12 03:14:39;;;;;;;47.58;31.58;;;11.40;99.90;;;;;;5130933;27;20051;-42
2021/05/12 03:17:05;;;;;;;47.08;32.38;;;11.40;99.90;;;;;;5130768;27;20051;-42
2021/05/12 03:19:31;;;;;;;41.78;31.52;;;11.40;99.90;;;;;;5130368;27;20051;-41
2021/05/12 03:22:00;;;;;;;48.58;34.83;;;11.40;99.90;;;;;;5131350;27;20051;-42
2021/05/12 03:24:26;;;;;;;46.30;32.63;;;11.40;99.90;;;;;;5131407;27;20081;-45
2021/05/12 03:26:52;;;;;;;43.38;32.63;;;11.40;99.90;;;;;;5130959;27;20055;-41
2021/05/12 03:29:18;;;;;;;41.03;31.27;;;11.50;99.90;;;;;;5130761;27;20539;-42
2021/05/12 03:31:45;;;;;;;50.20;33.97;;;11.50;99.90;;;;;;5131272;27;20137;-42
2021/05/12 03:34:11;;;;;;;42.03;31.75;;;11.40;99.90;;;;;;5131661;27;20104;-41
2021/05/12 03:36:37;;;;;;;45.58;32.75;;;11.40;99.90;;;;;;5131366;27;20051;-41
2021/05/12 03:39:05;;;;;;;44.67;32.22;;;11.40;99.90;;;;;;5131076;27;20501;-41
2021/05/12 03:41:32;;;;;;;47.03;32.35;;;11.40;99.90;;;;;;5130948;27;20050;-41
2021/05/12 03:43:58;;;;;;;50.20;35.25;;;11.30;99.90;;;;;;5130670;27;20100;-41
2021/05/12 03:46:24;;;;;;;52.03;34.65;;;11.40;99.90;;;;;;5131245;27;20050;-43
2021/05/12 03:48:50;;;;;;;57.30;35.63;;;11.40;99.90;;;;;;5130554;27;20058;-42
2021/05/12 03:51:16;;;;;;;52.10;35.78;;;11.40;99.90;;;;;;5131295;27;20047;-41
2021/05/12 03:53:42;;;;;;;49.70;34.70;;;11.40;99.90;;;;;;5130786;27;20062;-41
2021/05/12 03:56:08;;;;;;;50.63;34.47;;;11.40;99.90;;;;;;5137012;27;20039;-41
2021/05/12 03:58:34;;;;;;;48.90;33.97;;;11.40;99.90;;;;;;5131385;27;20446;-41
2021/05/12 04:01:01;;;;;;;56.90;35.10;;;11.30;99.90;;;;;;5130304;27;20052;-42
2021/05/12 04:03:29;;;;;;;57.80;35.83;;;11.30;99.90;;;;;;5130826;27;20092;-42
2021/05/12 04:05:56;;;;;;;58.78;36.67;;;11.30;99.90;;;;;;5130702;27;20082;-42
2021/05/12 04:08:24;;;;;;;65.90;39.42;;;11.30;99.90;;;;;;5130726;27;20418;-41
2021/05/12 04:10:53;;;;;;;63.17;38.00;;;11.30;99.90;;;;;;5130395;27;20043;-41
2021/05/12 04:13:23;;;;;;;63.60;38.10;;;11.40;99.90;;;;;;5129784;27;20073;-42
2021/05/12 04:15:49;;;;;;;68.13;39.58;;;11.40;99.90;;;;;;5129499;27;20051;-41
2021/05/12 04:18:15;;;;;;;65.68;40.53;;;11.50;99.90;;;;;;5129678;27;20054;-42
2021/05/12 04:20:42;;;;;;;70.68;41.10;;;11.40;99.90;;;;;;5110965;27;20057;-41
2021/05/12 04:23:08;;;;;;;68.13;40.42;;;11.40;99.90;;;;;;5129520;27;20407;-41
2021/05/12 04:25:35;;;;;;;60.80;37.88;;;11.40;99.90;;;;;;5129224;27;20051;-42
2021/05/12 04:28:01;;;;;;;66.75;40.85;;;11.40;99.90;;;;;;5129698;27;20090;-41
2021/05/12 04:30:31;;;;;;;65.32;40.58;;;11.50;99.90;;;;;;5129025;27;20104;-41
2021/05/12 04:32:59;;;;;;;63.65;40.58;;;11.50;99.90;;;;;;5132135;27;20047;-42
2021/05/12 04:35:26;;;;;;;63.75;40.00;;;11.50;99.90;;;;;;5126639;27;20066;-41
2021/05/12 04:37:53;;;;;;;57.42;37.25;;;11.60;99.90;;;;;;5128892;27;20047;-43
2021/05/12 04:40:21;;;;;;;52.10;37.28;;;11.60;99.90;;;;;;5120454;27;20134;-43
2021/05/12 04:42:48;;;;;;;50.63;36.40;;;11.60;99.90;;;;;;5109268;28;20039;-44
2021/05/12 04:45:19;;;;;;;56.33;36.13;;;11.70;99.90;;;;;;5091060;28;20039;-42
2021/05/12 04:47:55;;;;;;;55.40;38.40;;;11.70;99.90;;;;;;5109037;28;20534;-43
2021/05/12 04:50:33;;;;;;;49.45;35.85;;;11.80;99.90;;;;;;5108455;28;20055;-42
2021/05/12 04:53:00;;;;;;;50.03;35.38;;;11.80;99.90;;;;;;5108824;28;20214;-42
2021/05/12 04:55:26;;;;;;;49.03;34.22;;;11.80;99.90;;;;;;5108886;28;20081;-45
2021/05/12 04:57:53;;;;;;;48.72;34.75;;;11.80;99.90;;;;;;5108550;28;20048;-42
2021/05/12 05:00:20;;;;;;;50.08;35.10;;;11.80;99.90;;;;;;5108307;27;20043;-42
2021/05/12 05:02:47;;;;;;;46.92;35.17;;;11.80;99.90;;;;;;5109723;28;20048;-38
2021/05/12 05:05:17;;;;;;;43.92;33.45;;;11.90;99.90;;;;;;5109013;28;20086;-38
2021/05/12 05:07:44;;;;;;;41.72;32.85;;;11.90;99.90;;;;;;5108875;28;20514;-37
2021/05/12 05:10:10;;;;;;;40.47;32.83;;;11.90;99.90;;;;;;5109129;28;20070;-38
2021/05/12 05:12:36;;;;;;;38.25;31.92;;;12.00;99.90;;;;;;5107361;28;20051;-38
2021/05/12 05:15:03;;;;;;;37.25;29.83;;;12.00;99.90;;;;;;5109312;28;20050;-37
2021/05/12 05:17:31;;;;;;;29.02;25.83;;;12.10;99.90;;;;;;5117567;27;20042;-38
2021/05/12 05:20:03;;;;;;;31.15;27.67;;;12.10;99.90;;;;;;5128754;27;20150;-41
2021/05/12 05:22:29;;;;;;;30.45;26.38;;;12.30;99.90;;;;;;5128639;27;20054;-42
2021/05/12 05:24:56;;;;;;;26.35;23.55;;;12.50;99.40;;;;;;5128508;27;20482;-43
2021/05/12 05:27:23;;;;;;;28.90;25.90;;;12.70;98.50;;;;;;5124789;27;20440;-41
2021/05/12 05:29:49;;;;;;;26.15;23.40;;;13.00;98.80;;;;;;5128500;27;20130;-43
2021/05/12 05:32:34;;;;;;;26.15;22.75;;;13.40;98.50;;;;;;5126355;27;20069;-42
2021/05/12 05:35:19;;;;;;;23.08;20.80;;;13.50;97.40;;;;;;5131686;27;20049;-43
2021/05/12 05:38:12;;;;;;;24.42;21.83;;;13.70;97.00;;;;;;5064483;28;20060;-40
2021/05/12 05:40:58;;;;;;;22.00;19.90;;;13.70;96.50;;;;;;5064264;28;20508;-41
2021/05/12 05:43:43;;;;;;;21.80;19.52;;;13.80;95.90;;;;;;5064141;28;20220;-40
2021/05/12 05:46:27;;;;;;;18.02;16.10;;;13.80;95.70;;;;;;5063770;28;20044;-41
2021/05/12 05:49:12;;;;;;;18.42;16.08;;;13.50;94.30;;;;;;5064687;28;20079;-41
2021/05/12 05:51:56;;;;;;;17.88;15.43;;;13.40;94.00;;;;;;5064486;28;20049;-41
2021/05/12 05:54:41;;;;;;;16.23;14.40;;;13.50;93.30;;;;;;5064304;28;20055;-41
2021/05/12 05:57:34;;;;;;;;;;;13.60;93.90;;;;;;5005586;28;20118;-41
2021/05/12 06:00:23;;;;;;;16.02;13.73;;;13.60;92.20;;;;;;5024682;28;19924;-42
2021/05/12 06:02:49;;;;;;;18.75;14.07;;;13.80;92.60;;;;;;5023838;28;20049;-43
2021/05/12 06:05:34;;;;;;;16.23;14.07;;;14.10;92.40;;;;;;5007486;28;20052;-40
2021/05/12 06:08:20;;;;;;;13.32;11.93;;;14.20;92.80;;;;;;5004718;28;20089;-43
2021/05/12 06:11:22;;;;;;;15.00;11.52;;;14.30;93.10;;;;;;4966115;28;20880;-43
2021/05/12 06:14:07;;;;;;;15.65;12.30;;;14.40;92.10;;;;;;4967782;28;20158;-45
2021/05/12 06:16:53;;;;;;;14.35;11.05;;;14.40;90.60;;;;;;5004637;28;20552;-42
2021/05/12 06:19:38;;;;;;;13.00;11.02;;;14.40;92.70;;;;;;5008001;28;20144;-43
2021/05/12 06:22:23;;;;;;;12.77;9.40;;;14.50;91.70;;;;;;5004580;28;20060;-42
2021/05/12 06:25:10;;;;;;;10.15;8.95;;;14.50;90.50;;;;;;5004085;28;20058;-45
2021/05/12 06:27:55;;;;;;;10.10;8.07;;;14.50;91.50;;;;;;5004304;28;20511;-44
2021/05/12 06:30:39;;;;;;;8.93;7.45;;;14.50;89.80;;;;;;5004024;28;20145;-44
2021/05/12 06:33:28;;;;;;;12.60;7.15;;;14.30;85.80;;;;;;4992727;28;20054;-43
2021/05/12 06:36:16;;;;;;;8.05;7.15;;;14.50;87.70;;;;;;5047463;28;20095;-42
2021/05/12 06:39:01;;;;;;;10.50;6.38;;;14.60;88.60;;;;;;5043526;28;20071;-43
2021/05/12 06:41:30;;;;;;;9.60;6.22;;;14.70;89.00;;;;;;5026614;28;20055;-43
2021/05/12 06:43:56;;;;;;;12.32;6.05;;;14.70;88.10;;;;;;5043461;28;20052;-46
2021/05/12 06:46:22;;;;;;;10.55;5.22;;;14.90;83.00;;;;;;5085133;28;20376;-43
2021/05/12 06:48:51;;;;;;;10.65;5.40;;;15.20;82.70;;;;;;5111546;28;20078;-43
2021/05/12 06:51:22;;;;;;;9.07;5.85;;;15.20;81.40;;;;;;5111259;28;20051;-44
2021/05/12 06:53:48;;;;;;;8.88;5.75;;;15.40;80.70;;;;;;5110392;28;20055;-44
2021/05/12 06:56:15;;;;;;;8.52;4.90;;;15.50;84.20;;;;;;5111374;28;20067;-44
2021/05/12 06:58:42;;;;;;;10.15;5.32;;;15.30;77.80;;;;;;5110557;28;20048;-44
2021/05/12 07:01:09;;;;;;;10.30;5.07;;;15.10;78.60;;;;;;5110609;28;20495;-45
2021/05/12 07:03:36;;;;;;;10.07;5.32;;;15.50;80.10;;;;;;5110467;28;20039;-45
2021/05/12 07:06:02;;;;;;;13.20;6.20;;;15.50;80.60;;;;;;5110686;28;20051;-44
2021/05/12 07:08:29;;;;;;;14.23;5.65;;;15.70;79.50;;;;;;5111551;28;20051;-42
2021/05/12 07:10:56;;;;;;;9.73;5.35;;;15.80;77.80;;;;;;5112223;28;20093;-44
2021/05/12 07:13:22;;;;;;;9.15;4.95;;;15.60;75.80;;;;;;5092485;28;20044;-47
2021/05/12 07:15:48;;;;;;;10.00;4.25;;;15.90;77.20;;;;;;5111140;28;20051;-44
2021/05/12 07:18:19;;;;;;;11.52;4.55;;;15.90;77.60;;;;;;5113969;28;20050;-45
2021/05/12 07:20:48;;;;;;;8.48;4.03;;;16.10;77.60;;;;;;5111570;28;20065;-44
2021/05/12 07:23:22;;;;;;;8.60;3.60;;;16.10;77.70;;;;;;5110582;28;20077;-43
2021/05/12 07:25:48;;;;;;;9.38;3.47;;;16.40;75.30;;;;;;5111160;28;20051;-46
2021/05/12 07:28:16;;;;;;;6.15;2.90;;;16.40;75.20;;;;;;5110672;28;20547;-45
2021/05/12 07:30:43;;;;;;;8.25;3.75;;;16.40;73.90;;;;;;5111311;28;20083;-44
2021/05/12 07:33:10;;;;;;;8.70;3.78;;;16.60;76.50;;;;;;5110813;28;20571;-45
2021/05/12 07:35:37;;;;;;;6.43;2.80;;;16.60;77.60;;;;;;5110716;28;20564;-47
2021/05/12 07:38:11;;;;;;;6.85;3.10;;;16.90;75.20;;;;;;5110724;28;20048;-44
2021/05/12 07:40:43;;;;;;;9.35;3.65;;;16.90;72.40;;;;;;5110977;28;20124;-43
2021/05/12 07:43:11;;;;;;;6.05;3.10;;;16.60;73.00;;;;;;5110015;28;20054;-44
2021/05/12 07:45:41;;;;;;;8.20;3.22;;;16.90;76.70;;;;;;5099143;28;20043;-44
2021/05/12 07:48:12;;;;;;;7.28;3.60;;;17.10;73.20;;;;;;5092511;28;20603;-44
2021/05/12 07:50:40;;;;;;;8.13;3.28;;;16.90;74.60;;;;;;5109932;28;20505;-44
2021/05/12 07:53:07;;;;;;;6.45;3.10;;;17.00;72.80;;;;;;5109639;28;20051;-42
2021/05/12 07:55:53;;;;;;;6.93;3.30;;;17.20;74.40;;;;;;5094562;28;20047;-43
2021/05/12 07:58:19;;;;;;;6.75;3.03;;;17.00;72.60;;;;;;5109343;28;20594;-45
2021/05/12 08:00:46;;;;;;;9.18;3.00;;;17.20;74.00;;;;;;5110011;28;20392;-45
2021/05/12 08:03:12;;;;;;;6.90;2.35;;;17.00;73.10;;;;;;5109871;28;20084;-43
2021/05/12 08:05:38;;;;;;;4.70;2.30;;;17.20;73.10;;;;;;5109523;28;20052;-44
2021/05/12 08:08:24;;;;;;;6.50;2.40;;;17.60;73.10;;;;;;5094305;28;20055;-47
2021/05/12 08:10:56;;;;;;;6.97;2.35;;;17.60;72.80;;;;;;5109872;28;20079;-45
2021/05/12 08:13:22;;;;;;;7.20;2.38;;;17.60;70.90;;;;;;5109378;28;20126;-43
2021/05/12 08:16:07;;;;;;;7.38;1.88;;;17.70;71.60;;;;;;5110272;28;20134;-42
2021/05/12 08:18:34;;;;;;;5.45;2.13;;;17.90;72.30;;;;;;5109201;28;20081;-44
2021/05/12 08:21:03;;;;;;;6.70;2.50;;;18.00;71.10;;;;;;5109514;28;20047;-44
2021/05/12 08:23:31;;;;;;;7.40;2.10;;;17.70;68.60;;;;;;5108786;28;20088;-47
2021/05/12 08:25:59;;;;;;;4.72;1.77;;;18.00;71.10;;;;;;5091303;28;20064;-49
2021/05/12 08:28:28;;;;;;;5.82;2.00;;;18.70;70.80;;;;;;5109632;28;20040;-42
2021/05/12 08:30:57;;;;;;;4.50;1.38;;;18.80;69.10;;;;;;5116724;28;20613;-42
2021/05/12 08:33:24;;;;;;;5.05;1.38;;;18.60;63.30;;;;;;5109263;28;20051;-42
2021/05/12 08:36:10;;;;;;;4.38;1.20;;;18.70;67.00;;;;;;5094275;28;20130;-43
2021/05/12 08:38:56;;;;;;;5.07;1.88;;;18.50;64.40;;;;;;5093869;28;20571;-45
2021/05/12 08:41:22;;;;;;;6.45;1.75;;;19.00;66.50;;;;;;5109443;28;20075;-44
2021/05/12 08:43:48;;;;;;;8.05;1.52;;;19.00;65.80;;;;;;5109958;28;20044;-42
2021/05/12 08:46:18;;;;;;;6.82;1.65;;;19.30;65.50;;;;;;5110153;28;20062;-41
2021/05/12 08:48:49;;;;;;;6.38;1.50;;;19.40;62.60;;;;;;5109408;28;20055;-42
2021/05/12 08:51:15;;;;;;;6.00;1.38;;;19.40;64.00;;;;;;5109499;28;20052;-45
2021/05/12 08:53:42;;;;;;;4.85;1.45;;;19.30;61.70;;;;;;5109018;28;20134;-45
2021/05/12 08:56:09;;;;;;;4.85;1.45;;;19.70;60.20;;;;;;5109217;28;20217;-44
2021/05/12 08:58:35;;;;;;;6.28;1.20;;;19.60;60.30;;;;;;5111606;28;20080;-44
2021/05/12 09:01:01;;;;;;;4.47;1.52;;;20.10;61.00;;;;;;5108962;28;20073;-42
2021/05/12 09:03:28;;;;;;;5.93;1.50;;;20.00;59.00;;;;;;5108454;28;20495;-49
2021/05/12 09:05:58;;;;;;;2.90;1.00;;;19.70;59.20;;;;;;5109387;28;20047;-45
2021/05/12 09:08:27;;;;;;;5.18;1.42;;;19.90;56.70;;;;;;5115157;27;20820;-44
2021/05/12 09:10:54;;;;;;;5.60;1.52;;;19.80;58.10;;;;;;5127926;27;20092;-44
2021/05/12 09:13:43;;;;;;;7.35;3.20;;;20.30;56.90;;;;;;5128859;27;20047;-46
2021/05/12 09:16:18;;;;;;;7.15;3.88;;;20.30;56.00;;;;;;5128582;27;20073;-45
2021/05/12 09:18:45;;;;;;;5.45;2.00;;;20.40;55.70;;;;;;5127216;27;20043;-47
2021/05/12 09:21:13;;;;;;;6.68;1.55;;;20.60;53.60;;;;;;5128294;27;20055;-47
2021/05/12 09:23:40;;;;;;;5.75;1.80;;;21.00;56.90;;;;;;5128170;27;20130;-49
2021/05/12 09:26:16;;;;;;;6.07;1.13;;;21.50;56.40;;;;;;5123071;27;20059;-48
2021/05/12 09:28:43;;;;;;;4.88;1.38;;;21.60;52.80;;;;;;5123437;27;20043;-48
2021/05/12 09:31:14;;;;;;;5.45;1.83;;;21.30;52.60;;;;;;5120933;27;20047;-48
2021/05/12 09:33:45;;;;;;;;;;;21.00;54.70;;;;;;5124729;27;20517;-47
2021/05/12 09:36:27;;;;;;;6.03;1.60;;;20.90;53.10;;;;;;5126180;27;19923;-51
2021/05/12 09:38:56;;;;;;;18.42;15.27;;;21.70;54.00;;;;;;5092751;27;20082;-45
2021/05/12 09:41:33;;;;;;;5.95;1.33;;;21.80;51.70;;;;;;5135423;27;20050;-48
2021/05/12 09:44:00;;;;;;;5.72;1.05;;;21.60;51.80;;;;;;5127074;27;20823;-47
2021/05/12 09:46:37;;;;;;;6.05;1.50;;;21.00;51.60;;;;;;5090515;28;20054;-45
2021/05/12 09:49:03;;;;;;;7.97;1.65;;;20.90;52.90;;;;;;5109490;27;20063;-47
2021/05/12 09:51:32;;;;;;;8.43;1.58;;;20.50;51.70;;;;;;5132976;27;20672;-48
2021/05/12 09:54:04;;;;;;;20.83;17.73;;;21.60;51.90;;;;;;5128510;27;20047;-50
2021/05/12 09:56:49;;;;;;;7.00;2.75;;;22.00;51.80;;;;;;5125246;27;20058;-49
2021/05/12 09:59:18;;;;;;;6.18;2.08;;;21.60;50.30;;;;;;5127105;27;20520;-46
2021/05/12 10:01:50;;;;;;;11.00;7.93;;;21.20;54.50;;;;;;5127836;27;20484;-49
2021/05/12 10:07:23;;;;;;;9.75;4.18;;;21.90;53.20;;;;;;5125918;27;20109;-48
2021/05/12 10:09:56;;;;;;;6.03;1.80;;;22.00;50.30;;;;;;5126838;27;20047;-51
2021/05/12 10:12:26;;;;;;;6.93;1.77;;;21.30;52.40;;;;;;5126801;27;20062;-48
2021/05/12 10:14:55;;;;;;;7.78;2.83;;;21.70;53.30;;;;;;5127230;27;20055;-49
2021/05/12 10:17:23;;;;;;;4.90;1.42;;;22.00;52.20;;;;;;5127102;28;20561;-48
2021/05/12 10:19:50;;;;;;;7.57;2.58;;;21.70;50.70;;;;;;5130770;27;20047;-50
2021/05/12 10:22:19;;;;;;;6.45;1.83;;;21.30;52.70;;;;;;5134281;27;20055;-51
2021/05/12 10:24:50;;;;;;;6.50;1.63;;;21.40;52.10;;;;;;5134504;27;20089;-48
2021/05/12 10:27:27;;;;;;;5.38;1.60;;;21.90;51.70;;;;;;5134880;27;20051;-51
2021/05/12 10:30:00;;;;;;;8.32;2.10;;;21.60;49.70;;;;;;5133450;27;20043;-49
2021/05/12 10:32:32;;;;;;;6.25;1.83;;;22.00;53.60;;;;;;5134682;27;20580;-50
2021/05/12 10:35:07;;;;;;;5.07;1.52;;;22.10;51.70;;;;;;5133490;27;20104;-49
2021/05/12 10:37:45;;;;;;;8.02;1.70;;;23.30;52.40;;;;;;5138501;27;20147;-51
2021/05/12 10:40:41;;;;;;;6.57;1.80;;;22.40;49.90;;;;;;5116401;27;20054;-49
2021/05/12 10:45:49;;;;;;;7.53;2.17;;;22.40;52.60;;;;;;5133073;27;20133;-48
2021/05/12 10:48:28;;;;;;;10.40;4.80;;;22.00;52.90;;;;;;5133850;27;20057;-47
2021/05/12 10:50:55;;;;;;;8.43;3.42;;;22.30;52.40;;;;;;5112464;28;20048;-48
2021/05/12 10:53:25;;;;;;;12.70;6.85;;;22.30;51.70;;;;;;5118580;27;20047;-47
2021/05/12 10:56:00;;;;;;;8.32;1.95;;;22.30;50.10;;;;;;5137396;27;20074;-47
2021/05/12 10:58:37;;;;;;;8.02;2.15;;;21.40;52.50;;;;;;5114362;27;20065;-47
2021/05/12 11:01:06;;;;;;;9.27;2.28;;;21.40;53.80;;;;;;5134188;27;20051;-48
2021/05/12 11:03:50;;;;;;;8.95;2.78;;;21.90;54.30;;;;;;5134256;27;20320;-50
2021/05/12 11:06:21;;;;;;;7.18;1.92;;;22.30;52.90;;;;;;5133117;27;20043;-49
2021/05/12 11:09:05;;;;;;;;;;;21.90;52.90;;;;;;5138082;27;20050;-52
2021/05/12 11:11:32;;;;;;;11.32;2.17;;;21.10;56.50;;;;;;5133431;27;19963;-49
2021/05/12 11:14:21;;;;;;;8.85;2.38;;;20.40;56.00;;;;;;5133085;27;20118;-48
2021/05/12 11:17:05;;;;;;;11.02;2.80;;;21.10;56.50;;;;;;5132083;27;20047;-48
2021/05/12 11:19:44;;;;;;;8.75;2.05;;;21.50;53.30;;;;;;5139041;27;20046;-45
2021/05/12 11:25:01;;;;;;;6.57;2.15;;;21.00;54.20;;;;;;5117880;27;20074;-49
2021/05/12 11:32:38;;;;;;;8.75;2.10;;;21.00;53.90;;;;;;5129549;27;20390;-47
2021/05/12 11:35:08;;;;;;;8.90;2.30;;;20.70;54.60;;;;;;5130984;27;20054;-50
2021/05/12 11:37:38;;;;;;;10.65;2.75;;;21.20;53.50;;;;;;5129677;27;20782;-47
2021/05/12 11:40:06;;;;;;;7.68;2.22;;;21.50;52.50;;;;;;5132328;27;20043;-50
2021/05/12 11:42:34;;;;;;;11.48;3.90;;;21.40;52.80;;;;;;5115044;27;20123;-51
2021/05/12 11:45:19;;;;;;;18.83;13.20;;;21.80;52.20;;;;;;5126218;27;20456;-48
2021/05/12 11:47:58;;;;;;;26.17;21.80;;;22.20;51.10;;;;;;5107560;27;20055;-49
2021/05/12 11:50:35;;;;;;;10.05;2.65;;;22.10;53.60;;;;;;5131064;27;20479;-48
2021/05/12 11:53:01;;;;;;;9.68;3.08;;;22.10;51.30;;;;;;5112305;27;20100;-50
2021/05/12 11:55:30;;;;;;;8.57;2.05;;;20.70;53.60;;;;;;5121399;27;20047;-48
2021/05/12 11:57:56;;;;;;;7.95;2.33;;;20.90;53.30;;;;;;5129830;27;20667;-50
2021/05/12 12:00:29;;;;;;;10.50;2.38;;;20.90;54.20;;;;;;5129880;27;20632;-50
2021/05/12 12:03:05;;;;;;;8.38;2.47;;;20.60;56.40;;;;;;5129554;27;20396;-51
2021/05/12 12:05:39;;;;;;;8.98;2.28;;;20.20;55.20;;;;;;5129882;27;20035;-48
2021/05/12 12:08:16;;;;;;;9.68;3.65;;;19.60;56.60;;;;;;5128904;27;20055;-48
2021/05/12 12:10:43;;;;;;;9.68;2.58;;;19.60;57.40;;;;;;5127154;27;20050;-52
2021/05/12 12:13:13;;;;;;;10.20;2.40;;;20.30;58.00;;;;;;5125911;27;20445;-48
2021/05/12 12:15:44;;;;;;;14.60;7.78;;;21.00;56.40;;;;;;5129421;27;20154;-50
2021/05/12 12:18:10;;;;;;;7.28;2.20;;;21.10;56.30;;;;;;5123550;27;20127;-50
2021/05/12 12:20:37;;;;;;;20.27;11.98;;;20.80;55.60;;;;;;5129983;27;20124;-51
2021/05/12 12:23:07;;;;;;;8.95;2.25;;;21.40;54.80;;;;;;5130441;27;20043;-48
2021/05/12 12:25:43;;;;;;;6.88;1.60;;;21.40;52.10;;;;;;5124079;27;20055;-48
2021/05/12 12:28:09;;;;;;;5.93;1.80;;;21.70;51.50;;;;;;5125336;27;20047;-48
2021/05/12 12:30:35;;;;;;;7.28;1.85;;;21.70;50.50;;;;;;5129805;27;20058;-51
2021/05/12 12:33:02;;;;;;;8.30;2.70;;;20.80;52.10;;;;;;5129997;27;20047;-49
2021/05/12 12:35:28;;;;;;;6.97;1.90;;;21.50;51.20;;;;;;5129132;27;20046;-49
2021/05/12 12:37:55;;;;;;;7.55;1.73;;;21.80;49.40;;;;;;5128936;27;20526;-48
2021/05/12 12:40:23;;;;;;;7.07;2.20;;;21.60;50.50;;;;;;5117239;27;20055;-47
2021/05/12 12:42:54;;;;;;;7.85;2.03;;;22.20;51.50;;;;;;5127163;27;20039;-49
2021/05/12 12:45:35;;;;;;;8.07;2.05;;;22.60;48.20;;;;;;5129002;27;20054;-53
2021/05/12 12:48:04;;;;;;;8.30;2.20;;;22.70;47.40;;;;;;5128660;27;20082;-49
2021/05/12 12:50:35;;;;;;;7.97;1.83;;;22.40;48.20;;;;;;5129626;27;20078;-48
2021/05/12 12:53:17;;;;;;;7.15;1.88;;;23.00;48.40;;;;;;5129555;27;20518;-52
2021/05/12 12:55:43;;;;;;;6.78;1.70;;;23.00;46.30;;;;;;5107255;28;20039;-52
2021/05/12 12:58:14;;;;;;;6.25;1.42;;;23.40;45.90;;;;;;5113485;27;20043;-51
2021/05/12 13:00:45;;;;;;;6.32;1.67;;;23.20;44.90;;;;;;5129530;27;20383;-51
2021/05/12 13:03:15;;;;;;;8.82;2.17;;;22.80;44.70;;;;;;5128593;27;20035;-54
2021/05/12 13:05:43;;;;;;;11.00;2.03;;;23.00;44.40;;;;;;5128851;27;20119;-50
2021/05/12 13:08:13;;;;;;;15.25;10.90;;;23.40;45.00;;;;;;5128432;27;20042;-47